KERV/ERV METAR and TAF weather

Enter ICAO airport designator
Station Type Date Time Source
KERV METAR 2019/04/22 19:55 UTC NOAA

KERV 221955Z AUTO 16012G18KT 10SM SCT039 26/16 A3001 RMK AO2 T02570158


Station Type Date Time Source
KERV Decoded METAR 2019/04/22 19:55 UTC NOAA

Kerrville, Kerrville Municipal Airport/Louis Schreiner Field, TX, United States (KERV) 29-58N 099-05W
Apr 22, 2019 - 03:55 PM EDT / 2019.04.22 1955 UTC
Wind: from the SSE (160 degrees) at 14 MPH (12 KT) gusting to 21 MPH (18 KT):0
Visibility: 10 mile(s):0
Sky conditions: partly cloudy
Temperature: 78.3 F (25.7 C)
Dew Point: 60.4 F (15.8 C)
Relative Humidity: 54%
Pressure (altimeter): 30.01 in. Hg (1016 hPa)
ob: KERV 221955Z AUTO 16012G18KT 10SM SCT039 26/16 A3001 RMK AO2 T02570158
cycle: 20

Station Type Date Time Source
KERV TAF UTC NOAA

Error!

Example: see airport list